Time;durP1;ratioP1;P1;durP2;ratioP2;P2;SDS_P1;SDS_P2;PMS_P1;PMS_P2;Temp;Humidity;BMP_temperature;BMP_pressure;BME280_temperature;BME280_humidity;BME280_pressure;Samples;Min_cycle;Max_cycle;Signal;HPM_P1;HPM_P2
2022/01/31 00:00:53;;;;;;;;;13.25;10.25;;;;;10.02;54.47;102217.09;5102397;27;45520;-95
2022/01/31 00:03:18;;;;;;;;;11.50;9.25;;;;;10.00;54.49;102221.50;5100936;27;46408;-95
2022/01/31 00:05:44;;;;;;;;;13.00;10.25;;;;;9.99;54.40;102219.75;5087226;27;47320;-95
2022/01/31 00:08:09;;;;;;;;;12.50;11.00;;;;;9.96;54.15;102211.00;5101219;27;46010;-94
2022/01/31 00:10:35;;;;;;;;;11.00;8.00;;;;;9.88;54.75;102197.94;5101100;27;45619;-94
2022/01/31 00:13:07;;;;;;;;;16.00;10.50;;;;;9.86;54.77;102190.06;5100253;27;45814;-86
2022/01/31 00:15:39;;;;;;;;;6.75;5.75;;;;;9.86;54.62;102190.06;5102164;27;45444;-96
2022/01/31 00:18:04;;;;;;;;;12.50;10.75;;;;;9.86;54.65;102171.69;5110355;27;45200;-94
2022/01/31 00:20:30;;;;;;;;;9.50;9.25;;;;;9.88;54.74;102169.91;5114200;27;45289;-89
2022/01/31 00:22:56;;;;;;;;;9.50;7.50;;;;;9.88;54.48;102156.78;5090193;27;46012;-92
2022/01/31 00:25:21;;;;;;;;;7.00;7.00;;;;;9.92;54.86;102149.78;5099834;27;47135;-91
2022/01/31 00:27:50;;;;;;;;;12.25;8.50;;;;;9.93;54.55;102153.25;5099909;27;45398;-96
2022/01/31 00:30:16;;;;;;;;;10.50;9.00;;;;;9.97;54.62;102149.72;5100671;27;45348;-95
2022/01/31 00:32:42;;;;;;;;;8.75;8.00;;;;;9.97;54.56;102150.63;5100239;27;45900;-95
2022/01/31 00:35:09;;;;;;;;;8.75;7.25;;;;;9.98;54.51;102148.84;5100166;27;47558;-93
2022/01/31 00:37:34;;;;;;;;;10.25;7.75;;;;;9.96;54.69;102132.22;5100349;27;45264;-95
2022/01/31 00:40:00;;;;;;;;;5.00;5.00;;;;;9.95;54.17;102117.38;5118001;27;45168;-95
2022/01/31 00:42:27;;;;;;;;;7.25;5.25;;;;;9.96;53.89;102111.22;5105532;27;46196;-95
2022/01/31 00:45:07;;;;;;;;;8.00;7.50;;;;;9.90;54.44;102118.25;5104383;27;47255;-96
2022/01/31 00:47:33;;;;;;;;;9.75;6.25;;;;;9.89;53.96;102137.53;5113715;27;45673;-94
2022/01/31 00:50:10;;;;;;;;;7.75;5.50;;;;;9.87;54.71;102139.31;5100219;27;45194;-92
2022/01/31 00:52:38;;;;;;;;;5.25;5.00;;;;;9.87;54.52;102141.06;5082328;27;45290;-93
2022/01/31 00:55:05;;;;;;;;;10.00;6.25;;;;;9.87;54.71;102131.41;5095198;27;47377;-92
2022/01/31 00:57:31;;;;;;;;;9.25;6.25;;;;;9.87;54.56;102144.56;5117376;27;45335;-94
2022/01/31 00:59:56;;;;;;;;;13.75;9.25;;;;;9.86;54.85;102134.91;5100713;27;45355;-93
2022/01/31 01:02:23;;;;;;;;;5.00;5.00;;;;;9.83;54.36;102121.81;5099734;27;46116;-91
2022/01/31 01:04:49;;;;;;;;;8.00;7.00;;;;;9.81;54.85;102123.56;5099701;27;47189;-93
2022/01/31 01:07:14;;;;;;;;;10.00;7.25;;;;;9.83;55.11;102111.28;5100732;27;45584;-85
2022/01/31 01:09:46;;;;;;;;;10.25;6.75;;;;;9.83;54.51;102095.53;5100574;27;45293;-85
2022/01/31 01:12:14;;;;;;;;;4.75;4.75;;;;;9.88;54.47;102087.63;5100310;27;45619;-85
2022/01/31 01:14:40;;;;;;;;;7.25;5.25;;;;;9.85;54.48;102091.16;5108462;27;46449;-85
2022/01/31 01:17:06;;;;;;;;;8.50;5.00;;;;;9.79;54.21;102086.84;5104631;27;45704;-85
2022/01/31 01:19:32;;;;;;;;;9.25;7.50;;;;;9.77;54.77;102090.34;5100401;27;45262;-85
2022/01/31 01:21:57;;;;;;;;;10.00;5.50;;;;;9.75;54.53;102086.88;5098888;27;45408;-85
2022/01/31 01:24:23;;;;;;;;;8.25;6.50;;;;;9.74;54.95;102064.13;5100175;27;45406;-85
2022/01/31 01:26:49;;;;;;;;;10.25;6.50;;;;;9.73;54.49;102071.13;5098615;27;45470;-85
2022/01/31 01:29:15;;;;;;;;;7.00;4.00;;;;;9.73;54.51;102063.22;5100125;27;45262;-85
2022/01/31 01:31:40;;;;;;;;;5.50;4.75;;;;;9.77;54.75;102064.97;5099607;27;45498;-85
2022/01/31 01:34:06;;;;;;;;;7.50;5.25;;;;;9.77;54.66;102054.47;5098515;27;48192;-87
2022/01/31 01:36:32;;;;;;;;;6.00;3.00;;;;;9.80;55.19;102032.56;5104646;27;45775;-86
2022/01/31 01:38:58;;;;;;;;;3.75;3.25;;;;;9.80;55.01;102029.94;5100381;27;45294;-87
2022/01/31 01:41:24;;;;;;;;;7.50;4.25;;;;;9.78;55.38;102014.19;5099715;27;45358;-87
2022/01/31 01:43:50;;;;;;;;;8.25;4.75;;;;;9.78;54.79;102005.44;5101409;27;45294;-85
2022/01/31 01:46:15;;;;;;;;;8.50;6.50;;;;;9.80;55.41;102003.69;5103583;27;45665;-85
2022/01/31 01:48:41;;;;;;;;;5.00;4.25;;;;;9.78;55.51;102000.19;5103643;27;45180;-85
2022/01/31 01:51:06;;;;;;;;;5.50;3.00;;;;;9.82;54.94;102004.53;5103402;27;45379;-85
2022/01/31 01:53:32;;;;;;;;;3.25;3.00;;;;;9.79;55.28;101994.06;5103051;27;45451;-85
2022/01/31 01:55:58;;;;;;;;;5.00;5.00;;;;;9.80;55.65;102006.31;5116826;27;45407;-87
2022/01/31 01:58:25;;;;;;;;;5.75;4.00;;;;;9.78;55.85;101994.91;5102545;27;45435;-87
2022/01/31 02:01:04;;;;;;;;;8.00;4.00;;;;;9.79;55.39;102012.44;5101792;27;46188;-87
2022/01/31 02:03:33;;;;;;;;;7.50;5.00;;;;;9.79;55.69;102017.69;5103252;27;45417;-87
2022/01/31 02:05:59;;;;;;;;;6.75;4.50;;;;;9.77;55.38;102011.59;5102086;27;45626;-84
2022/01/31 02:08:26;;;;;;;;;6.75;5.25;;;;;9.80;55.80;102006.31;5102805;27;45611;-84
2022/01/31 02:10:52;;;;;;;;;7.00;4.25;;;;;9.81;55.95;102000.16;5103377;27;45417;-84
2022/01/31 02:13:18;;;;;;;;;5.50;3.25;;;;;9.82;56.12;101986.16;5102841;27;45411;-90
2022/01/31 02:15:45;;;;;;;;;4.00;4.00;;;;;9.88;55.91;101991.34;5103344;27;45294;-88
2022/01/31 02:18:11;;;;;;;;;6.75;4.75;;;;;9.82;55.97;101994.03;5103098;27;45261;-88
2022/01/31 02:20:38;;;;;;;;;9.25;4.00;;;;;9.78;56.12;101981.78;5103021;27;45586;-90
2022/01/31 02:23:06;;;;;;;;;3.75;3.25;;;;;9.77;56.07;101980.06;5101510;27;47300;-91
2022/01/31 02:25:32;;;;;;;;;5.00;5.00;;;;;9.78;56.25;101985.28;5103263;27;45210;-90
2022/01/31 02:27:57;;;;;;;;;7.25;4.75;;;;;9.78;56.50;101981.78;5100675;27;45239;-91
2022/01/31 02:30:23;;;;;;;;;6.00;4.00;;;;;9.78;57.10;101973.91;5101735;27;46189;-90
2022/01/31 02:32:48;;;;;;;;;7.25;4.00;;;;;9.77;56.84;101975.69;5103276;27;46314;-91
2022/01/31 02:35:13;;;;;;;;;5.25;4.00;;;;;9.77;57.33;101965.19;5117625;27;45200;-91
2022/01/31 02:37:39;;;;;;;;;7.00;3.00;;;;;9.78;57.29;101945.03;5103020;27;45231;-89
2022/01/31 02:40:06;;;;;;;;;8.75;3.75;;;;;9.77;56.99;101933.69;5101629;27;46367;-92
2022/01/31 02:42:31;;;;;;;;;4.75;4.50;;;;;9.77;57.55;101933.69;5097365;27;46819;-95
2022/01/31 02:44:56;;;;;;;;;5.50;2.00;;;;;9.77;57.60;101953.81;5083057;27;45274;-91
2022/01/31 02:47:25;;;;;;;;;7.25;4.75;;;;;9.75;57.25;101950.34;5101566;27;45312;-89
2022/01/31 02:50:00;;;;;;;;;4.75;4.75;;;;;9.77;57.53;101920.56;5102512;27;45520;-88
2022/01/31 02:52:31;;;;;;;;;6.25;3.25;;;;;9.74;57.71;101915.34;5102457;27;46166;-89
2022/01/31 02:54:57;;;;;;;;;5.00;4.00;;;;;9.78;58.03;101903.03;5102344;27;45151;-89
2022/01/31 02:57:23;;;;;;;;;7.50;3.50;;;;;9.78;57.86;101917.03;5101064;27;45551;-88
2022/01/31 02:59:48;;;;;;;;;5.50;3.00;;;;;9.77;58.05;101902.19;5101963;27;45537;-89
2022/01/31 03:02:14;;;;;;;;;7.50;3.00;;;;;9.81;58.30;101905.63;5094069;27;45360;-95
2022/01/31 03:04:40;;;;;;;;;5.00;3.50;;;;;9.82;58.34;101903.88;5102090;27;45545;-95
2022/01/31 03:07:05;;;;;;;;;4.50;3.00;;;;;9.85;58.45;101901.22;5102466;27;45333;-96
2022/01/31 03:09:31;;;;;;;;;5.00;4.25;;;;;9.85;58.14;101890.72;5106989;27;45924;-95
2022/01/31 03:11:56;;;;;;;;;2.50;2.50;;;;;9.85;58.35;101894.19;5101558;27;47146;-91
2022/01/31 03:14:21;;;;;;;;;3.50;0.25;;;;;9.81;59.26;101884.63;5101531;27;45499;-88
2022/01/31 03:16:48;;;;;;;;;2.25;2.00;;;;;9.76;59.41;101868.03;5102797;27;45749;-95
2022/01/31 03:19:15;;;;;;;;;8.50;3.00;;;;;9.76;59.67;101876.78;5101809;27;47179;-92
2022/01/31 03:21:41;;;;;;;;;1.00;1.00;;;;;9.79;59.51;101873.25;5114256;27;48025;-93
2022/01/31 03:24:07;;;;;;;;;3.50;2.25;;;;;9.79;59.99;101862.75;5088556;27;45216;-95
2022/01/31 03:26:32;;;;;;;;;4.75;3.25;;;;;9.81;60.28;101871.50;5119162;27;45503;-93
2022/01/31 03:28:58;;;;;;;;;3.50;2.50;;;;;9.78;60.10;101861.88;5159572;22;46305;-94
2022/01/31 03:31:24;;;;;;;;;4.00;2.00;;;;;9.81;60.69;101854.84;5084779;27;48042;-96
2022/01/31 03:36:25;;;;;;;;;2.00;2.00;;;;;9.79;60.22;101857.50;5252378;22;45831;-91
2022/01/31 03:38:50;;;;;;;;;4.00;1.00;;;;;9.81;60.66;101868.84;5024765;28;47297;-96
2022/01/31 03:41:18;;;;;;;;;2.75;2.50;;;;;9.83;60.80;101869.72;5027202;28;46884;-95
2022/01/31 03:43:44;;;;;;;;;2.00;2.00;;;;;9.90;60.71;101846.91;5030424;28;45312;-93
2022/01/31 03:46:10;;;;;;;;;3.00;3.00;;;;;9.95;60.89;101870.47;5024556;28;45350;-96
2022/01/31 03:48:36;;;;;;;;;2.25;2.00;;;;;9.99;61.28;101844.16;5023372;28;45869;-87
2022/01/31 03:51:02;;;;;;;;;3.50;2.00;;;;;10.01;61.33;101826.59;5040752;28;46283;-87
2022/01/31 03:53:29;;;;;;;;;0.75;0.75;;;;;10.06;61.21;101829.16;5039931;28;45606;-87
2022/01/31 03:55:54;;;;;;;;;1.25;1.25;;;;;10.09;60.98;101830.88;5040696;28;45315;-87
2022/01/31 03:58:20;;;;;;;;;3.75;3.00;;;;;10.07;61.28;101815.16;5040546;28;45484;-88
2022/01/31 04:00:47;;;;;;;;;1.00;1.00;;;;;10.07;61.37;101825.66;5040555;28;46346;-88
2022/01/31 04:03:12;;;;;;;;;2.25;1.25;;;;;10.07;61.31;101823.03;5040544;28;45561;-87
2022/01/31 04:05:38;;;;;;;;;1.00;1.00;;;;;10.10;61.70;101809.84;5039571;28;45505;-88
2022/01/31 04:08:04;;;;;;;;;4.25;1.50;;;;;10.14;61.61;101818.56;5040335;28;45242;-88
2022/01/31 04:10:30;;;;;;;;;4.75;2.00;;;;;10.17;62.17;101841.28;5040380;28;45465;-87
2022/01/31 04:12:56;;;;;;;;;2.75;2.00;;;;;10.20;62.56;101838.59;5040076;28;45443;-94
2022/01/31 04:15:21;;;;;;;;;1.50;1.50;;;;;10.19;62.74;101856.16;5023740;28;45348;-93
2022/01/31 04:17:47;;;;;;;;;3.00;3.00;;;;;10.21;62.85;101861.38;5022968;28;46954;-91
2022/01/31 04:20:12;;;;;;;;;4.75;2.25;;;;;10.24;62.61;101863.97;5022437;28;46469;-91
2022/01/31 04:22:47;;;;;;;;;4.00;2.00;;;;;10.25;64.22;101855.19;5021885;28;45440;-91
2022/01/31 04:25:28;;;;;;;;;0.25;0.25;;;;;10.27;63.62;101860.44;5024872;28;45257;-95
2022/01/31 04:28:01;;;;;;;;;2.00;2.00;;;;;10.25;63.98;101865.69;5010753;28;46378;-96
2022/01/31 04:30:28;;;;;;;;;1.50;1.50;;;;;10.27;63.91;101870.94;5024387;28;47304;-92
2022/01/31 04:32:53;;;;;;;;;1.00;1.00;;;;;10.27;64.25;101853.44;5022616;28;45244;-90
2022/01/31 04:35:19;;;;;;;;;1.00;1.00;;;;;10.27;65.08;101847.28;5040182;28;45359;-89
2022/01/31 04:37:44;;;;;;;;;4.25;1.00;;;;;10.26;63.91;101853.44;5039667;28;45620;-92
2022/01/31 04:40:13;;;;;;;;;5.00;1.00;;;;;10.24;64.20;101853.47;5023765;28;47109;-96
2022/01/31 04:42:43;;;;;;;;;4.00;2.00;;;;;10.26;64.49;101864.81;5027165;28;45260;-96
2022/01/31 04:45:09;;;;;;;;;1.00;1.00;;;;;10.26;63.95;101864.81;5023455;28;45258;-92
2022/01/31 04:47:34;;;;;;;;;1.75;1.00;;;;;10.23;64.83;101843.81;5022990;28;47428;-93
2022/01/31 04:50:00;;;;;;;;;2.25;1.75;;;;;10.21;64.86;101835.09;5020373;28;46893;-89
2022/01/31 04:52:25;;;;;;;;;2.00;1.25;;;;;10.20;64.21;101828.09;5039607;28;45408;-89
2022/01/31 04:54:50;;;;;;;;;3.00;1.75;;;;;10.22;64.19;101842.94;5040245;28;45308;-92
2022/01/31 04:57:17;;;;;;;;;1.25;1.25;;;;;10.26;64.64;101832.41;5039978;28;45309;-89
2022/01/31 04:59:43;;;;;;;;;1.00;1.00;;;;;10.24;64.41;101827.19;5021446;28;48119;-90
2022/01/31 05:02:09;;;;;;;;;3.75;2.25;;;;;10.25;64.29;101831.53;5022066;28;45297;-87
2022/01/31 05:04:35;;;;;;;;;4.75;2.25;;;;;10.24;64.42;101840.31;5021750;28;45253;-86
2022/01/31 05:07:00;;;;;;;;;4.25;1.25;;;;;10.20;64.48;101835.97;5039877;28;45325;-88
2022/01/31 05:09:25;;;;;;;;;2.50;1.50;;;;;10.19;64.71;101829.00;5039710;28;46256;-91
2022/01/31 05:11:51;;;;;;;;;2.75;2.75;;;;;10.19;64.15;101850.03;5039595;28;45225;-92
2022/01/31 05:14:17;;;;;;;;;2.50;1.50;;;;;10.17;63.87;101825.53;5039084;28;45362;-89
2022/01/31 05:16:43;;;;;;;;;3.75;3.00;;;;;10.10;63.12;101830.00;5039636;28;45517;-90
2022/01/31 05:19:08;;;;;;;;;3.00;2.00;;;;;10.06;63.66;101852.81;5040552;28;45306;-94
2022/01/31 05:21:34;;;;;;;;;4.50;2.50;;;;;10.04;63.27;101848.47;5024368;28;45394;-95
2022/01/31 05:23:59;;;;;;;;;2.25;2.00;;;;;10.03;62.92;101850.22;5023383;28;45238;-92
2022/01/31 05:26:25;;;;;;;;;2.25;2.00;;;;;10.02;62.91;101851.13;5022768;28;45903;-88
2022/01/31 05:28:50;;;;;;;;;2.25;2.25;;;;;9.99;62.48;101856.41;5038872;28;45527;-89
2022/01/31 05:31:16;;;;;;;;;2.50;1.75;;;;;9.99;62.20;101856.41;5039107;28;45430;-91
2022/01/31 05:33:41;;;;;;;;;3.00;1.00;;;;;9.97;61.91;101874.81;5039457;28;45375;-87
2022/01/31 05:36:07;;;;;;;;;1.25;1.00;;;;;9.98;62.18;101873.03;5038968;28;45378;-88
2022/01/31 05:38:38;;;;;;;;;1.75;1.75;;;;;10.01;61.89;101880.88;5039096;28;45402;-88
2022/01/31 05:41:07;;;;;;;;;2.50;2.00;;;;;10.00;60.98;101884.41;5039671;28;45498;-87
2022/01/31 05:43:32;;;;;;;;;1.00;1.00;;;;;10.03;60.65;101865.97;5039348;28;45346;-86
2022/01/31 05:45:57;;;;;;;;;1.00;1.00;;;;;10.04;60.09;101880.84;5039228;28;45285;-88
2022/01/31 05:48:23;;;;;;;;;3.00;1.00;;;;;10.03;59.52;101871.22;5039449;28;46541;-87
2022/01/31 05:50:48;;;;;;;;;2.25;1.00;;;;;9.99;59.33;101848.53;5038485;28;45413;-88
2022/01/31 05:53:14;;;;;;;;;2.00;1.00;;;;;10.01;59.79;101857.25;5018602;28;45214;-87
2022/01/31 05:55:40;;;;;;;;;4.00;1.75;;;;;10.06;59.61;101870.31;5021070;28;46393;-87
2022/01/31 05:58:06;;;;;;;;;2.75;1.50;;;;;10.05;58.48;101872.06;5038100;28;45442;-87
2022/01/31 06:00:32;;;;;;;;;0.75;0.75;;;;;10.06;58.84;101886.97;5038513;28;45449;-86
2022/01/31 06:02:58;;;;;;;;;2.00;2.00;;;;;10.05;58.48;101864.19;5020533;28;46726;-86
2022/01/31 06:05:25;;;;;;;;;3.00;2.00;;;;;10.06;58.77;101839.69;5038177;28;45508;-89
2022/01/31 06:07:50;;;;;;;;;1.00;1.00;;;;;10.05;58.88;101852.84;5020624;28;48435;-91
2022/01/31 06:10:16;;;;;;;;;2.75;1.00;;;;;10.01;58.62;101867.75;5016015;28;45515;-88
2022/01/31 06:12:42;;;;;;;;;2.75;2.75;;;;;10.02;58.15;101872.13;5019669;28;45609;-88
2022/01/31 06:15:08;;;;;;;;;1.00;0.00;;;;;9.97;58.13;101859.06;5036824;28;45532;-87
2022/01/31 06:17:34;;;;;;;;;5.25;2.00;;;;;9.96;58.15;101869.56;5023802;28;46029;-90
2022/01/31 06:19:59;;;;;;;;;3.50;2.00;;;;;9.94;58.51;101848.59;5038271;28;45293;-90
2022/01/31 06:22:24;;;;;;;;;2.00;1.00;;;;;9.93;57.42;101875.72;5021566;28;45253;-92
2022/01/31 06:24:50;;;;;;;;;3.25;1.75;;;;;9.89;57.77;101880.16;5025992;28;47212;-87
2022/01/31 06:27:16;;;;;;;;;1.00;1.00;;;;;9.91;57.51;101893.25;5025339;28;45994;-87
2022/01/31 06:29:41;;;;;;;;;2.75;1.75;;;;;9.89;57.29;101897.66;5039771;28;45289;-87
2022/01/31 06:32:07;;;;;;;;;2.25;1.75;;;;;9.84;57.93;101878.47;5041835;28;45646;-88
2022/01/31 06:34:33;;;;;;;;;5.25;2.50;;;;;9.86;58.03;101890.69;5029593;28;45240;-87
2022/01/31 06:37:02;;;;;;;;;2.50;2.50;;;;;9.88;57.63;101869.66;5032942;28;47993;-87
2022/01/31 06:39:28;;;;;;;;;5.75;2.25;;;;;9.85;56.75;101878.44;5040221;28;45261;-87
2022/01/31 06:41:53;;;;;;;;;3.00;1.00;;;;;9.85;57.40;101874.97;5041694;28;45458;-87
2022/01/31 06:44:19;;;;;;;;;2.00;2.00;;;;;9.85;56.73;101877.59;5022916;28;46037;-86
2022/01/31 06:46:44;;;;;;;;;3.00;1.00;;;;;9.82;57.12;101870.63;5041315;28;46427;-87
2022/01/31 06:49:09;;;;;;;;;1.50;1.25;;;;;9.81;56.84;101871.50;5041491;28;45236;-86
2022/01/31 06:51:35;;;;;;;;;2.00;1.00;;;;;9.81;57.22;101874.13;5041189;28;45258;-89
2022/01/31 06:54:01;;;;;;;;;3.25;1.00;;;;;9.81;56.45;101879.38;5041778;28;45431;-85
2022/01/31 06:56:30;;;;;;;;;2.00;1.00;;;;;9.79;56.85;101881.16;5041478;28;45265;-86
2022/01/31 06:58:57;;;;;;;;;2.25;1.00;;;;;9.81;57.15;101886.38;5042485;28;45734;-87
2022/01/31 07:01:25;;;;;;;;;4.75;2.75;;;;;9.74;56.48;101872.44;5036325;28;45511;-86
2022/01/31 07:03:53;;;;;;;;;4.50;2.25;;;;;9.72;56.99;101871.59;5026301;28;45410;-87
2022/01/31 07:06:18;;;;;;;;;2.50;2.50;;;;;9.71;57.14;101883.84;5008144;28;47194;-87
2022/01/31 07:08:43;;;;;;;;;1.00;1.00;;;;;9.73;57.00;101905.69;5041097;28;45207;-89
2022/01/31 07:11:14;;;;;;;;;3.25;1.50;;;;;9.71;56.92;101910.09;5040148;28;45305;-89
2022/01/31 07:13:39;;;;;;;;;2.00;2.00;;;;;9.71;56.79;101901.34;5040761;28;45410;-91
2022/01/31 07:16:05;;;;;;;;;4.25;1.00;;;;;9.72;57.07;101889.97;5022402;28;46716;-89
2022/01/31 07:18:32;;;;;;;;;3.75;1.50;;;;;9.71;56.68;101899.59;5022801;28;45548;-90
2022/01/31 07:20:58;;;;;;;;;3.00;2.00;;;;;9.72;56.50;101908.34;5041392;28;45295;-86
2022/01/31 07:23:27;;;;;;;;;3.00;2.00;;;;;9.71;56.60;101911.84;5041110;28;45377;-91
2022/01/31 07:25:54;;;;;;;;;3.25;1.75;;;;;9.72;56.46;101924.97;5019199;28;47959;-90
2022/01/31 07:28:19;;;;;;;;;1.25;1.25;;;;;9.69;56.46;101927.63;5038589;28;45630;-87
2022/01/31 07:30:50;;;;;;;;;0.50;0.00;;;;;9.65;56.55;101924.19;5041397;28;45413;-85
2022/01/31 07:33:17;;;;;;;;;1.50;1.50;;;;;9.66;56.16;101933.78;5040570;28;45315;-86
2022/01/31 07:35:45;;;;;;;;;3.50;3.00;;;;;9.59;56.47;101926.84;5040530;28;45464;-84
2022/01/31 07:38:11;;;;;;;;;2.00;2.00;;;;;9.63;56.37;101925.09;5022137;28;45617;-86
2022/01/31 07:40:37;;;;;;;;;3.00;1.50;;;;;9.55;55.76;101928.66;5032082;28;45447;-87
2022/01/31 07:43:03;;;;;;;;;3.75;1.00;;;;;9.55;56.35;101922.53;5022342;28;45877;-88
2022/01/31 07:45:28;;;;;;;;;2.00;2.00;;;;;9.55;56.58;101933.03;5031180;28;48203;-89
2022/01/31 07:47:54;;;;;;;;;2.00;1.00;;;;;9.52;56.39;101928.66;5040874;28;45282;-87
2022/01/31 07:50:19;;;;;;;;;1.75;0.00;;;;;9.53;55.93;101926.94;5040998;28;45434;-87
2022/01/31 07:52:45;;;;;;;;;4.00;1.00;;;;;9.53;56.30;101947.91;5040933;28;45347;-87
2022/01/31 07:55:12;;;;;;;;;2.00;1.00;;;;;9.50;56.37;101950.56;5040423;28;45410;-86
2022/01/31 07:57:38;;;;;;;;;3.50;2.00;;;;;9.42;56.03;101946.25;5040428;28;45425;-86
2022/01/31 08:00:06;;;;;;;;;4.50;2.00;;;;;9.48;56.45;101960.22;5040965;28;45365;-86
2022/01/31 08:02:31;;;;;;;;;2.00;1.00;;;;;9.49;56.18;101956.69;5040722;28;45504;-86
2022/01/31 08:04:56;;;;;;;;;3.75;2.50;;;;;9.53;56.31;101961.88;5035044;28;45429;-86
2022/01/31 08:07:23;;;;;;;;;0.75;0.25;;;;;9.57;55.92;101978.50;5034003;28;45288;-86
2022/01/31 08:09:48;;;;;;;;;2.50;2.25;;;;;9.60;55.92;101977.59;5040934;28;45224;-87
2022/01/31 08:12:14;;;;;;;;;2.25;2.00;;;;;9.59;55.39;101991.59;5022264;28;45897;-87
2022/01/31 08:14:40;;;;;;;;;4.00;3.00;;;;;9.63;55.73;101988.09;5039514;28;46162;-86
2022/01/31 08:17:05;;;;;;;;;3.00;1.25;;;;;9.64;55.99;101990.69;5040224;28;45729;-87
2022/01/31 08:19:31;;;;;;;;;4.75;3.00;;;;;9.67;55.84;101995.91;5040550;28;45423;-87
2022/01/31 08:21:56;;;;;;;;;3.50;2.00;;;;;9.67;56.12;101982.78;5021549;28;45521;-87
2022/01/31 08:24:21;;;;;;;;;2.00;2.00;;;;;9.68;55.84;101984.50;5040109;28;45537;-85
2022/01/31 08:26:47;;;;;;;;;4.00;2.25;;;;;9.73;55.94;101987.09;5022242;28;45347;-85
2022/01/31 08:29:28;;;;;;;;;5.50;2.00;;;;;9.74;55.98;102006.34;5039690;28;45509;-86
2022/01/31 08:31:53;;;;;;;;;2.00;2.00;;;;;9.77;55.96;101987.94;5039431;28;45157;-86
2022/01/31 08:36:46;;;;;;;;;2.75;2.75;;;;;9.76;55.72;101989.69;5036933;28;45436;-86
2022/01/31 08:39:17;;;;;;;;;6.50;3.25;;;;;9.81;55.80;101992.28;5040416;28;45423;-86
2022/01/31 08:41:45;;;;;;;;;5.75;1.00;;;;;9.76;56.07;101983.56;5039777;28;45260;-86
2022/01/31 08:44:13;;;;;;;;;4.25;0.50;;;;;9.82;55.90;101987.91;5039942;28;46363;-86
2022/01/31 08:46:39;;;;;;;;;2.00;2.00;;;;;9.83;56.25;101995.75;5039486;28;45800;-86
2022/01/31 08:49:09;;;;;;;;;2.25;1.25;;;;;9.80;56.01;101987.94;5009409;28;45301;-86
2022/01/31 08:51:36;;;;;;;;;4.50;3.00;;;;;9.84;56.29;102002.75;5039547;28;45377;-88
2022/01/31 08:54:05;;;;;;;;;8.50;3.00;;;;;9.86;56.39;102021.13;5026659;28;45449;-87
2022/01/31 08:56:35;;;;;;;;;2.00;2.00;;;;;9.88;55.94;102020.22;5039985;28;45216;-86
2022/01/31 08:59:00;;;;;;;;;2.50;2.50;;;;;9.90;55.94;102031.56;5039924;28;45347;-86
2022/01/31 09:01:25;;;;;;;;;3.00;2.00;;;;;9.92;56.45;102025.44;5039755;28;45461;-85
2022/01/31 09:06:17;;;;;;;;;2.25;2.00;;;;;9.98;56.09;102010.50;5039707;28;45315;-87
2022/01/31 09:08:43;;;;;;;;;2.25;2.00;;;;;10.00;55.96;101997.38;5023695;28;45890;-86
2022/01/31 09:11:09;;;;;;;;;5.00;3.00;;;;;10.01;55.40;101993.84;5027733;28;45802;-87
2022/01/31 09:13:35;;;;;;;;;4.50;3.25;;;;;9.98;55.48;101989.47;5037398;28;45585;-86
2022/01/31 09:16:01;;;;;;;;;2.75;1.75;;;;;9.98;56.07;101975.47;5019681;28;45738;-87
2022/01/31 09:18:26;;;;;;;;;3.00;3.00;;;;;9.97;55.06;101995.63;5050731;28;45223;-87
2022/01/31 09:20:52;;;;;;;;;5.00;2.25;;;;;9.99;54.95;102000.88;5040170;28;45272;-86
2022/01/31 09:23:17;;;;;;;;;2.25;2.00;;;;;9.99;55.12;101979.84;5038012;28;45694;-87
2022/01/31 09:25:45;;;;;;;;;5.75;4.00;;;;;10.00;55.02;101976.34;5039018;28;45223;-87
2022/01/31 09:28:11;;;;;;;;;4.50;3.75;;;;;10.05;54.71;101995.53;5039616;28;45487;-87
2022/01/31 09:30:38;;;;;;;;;3.25;1.50;;;;;10.06;54.83;101999.91;5020043;28;47111;-87
2022/01/31 09:33:03;;;;;;;;;7.00;4.00;;;;;10.03;54.73;101986.81;5038992;28;45367;-87
2022/01/31 09:35:29;;;;;;;;;5.00;3.00;;;;;10.07;54.31;102004.28;5038387;28;45346;-90
2022/01/31 09:37:54;;;;;;;;;2.25;2.25;;;;;10.07;54.07;101999.03;5029275;28;45401;-88
2022/01/31 09:40:22;;;;;;;;;3.50;2.75;;;;;10.07;54.54;102001.66;5025108;28;46111;-87
2022/01/31 09:43:23;;;;;;;;;4.50;1.00;;;;;10.09;54.65;101978.88;5038470;28;45464;-87
2022/01/31 09:45:58;;;;;;;;;4.25;1.25;;;;;10.08;54.43;101998.13;5037624;28;45410;-88
2022/01/31 09:48:33;;;;;;;;;5.00;1.75;;;;;10.09;53.46;101997.25;5038506;28;45428;-88
2022/01/31 09:51:02;;;;;;;;;3.75;2.75;;;;;10.10;53.66;101993.72;5030746;28;47305;-87
2022/01/31 09:53:32;;;;;;;;;3.00;2.00;;;;;10.19;54.29;101997.16;5037677;28;46345;-86
2022/01/31 09:55:57;;;;;;;;;2.75;1.25;;;;;10.23;53.99;101988.34;5038900;28;45503;-87
2022/01/31 09:58:29;;;;;;;;;3.00;3.00;;;;;10.28;54.07;101975.16;5037727;28;45608;-87
2022/01/31 10:01:06;;;;;;;;;4.00;1.25;;;;;10.35;52.67;102006.59;5047756;28;45345;-86
2022/01/31 10:03:32;;;;;;;;;4.75;2.00;;;;;10.38;52.73;101994.31;5037918;28;45435;-86
2022/01/31 10:05:58;;;;;;;;;2.75;2.00;;;;;10.38;53.24;101991.69;5026909;28;45534;-86
2022/01/31 10:08:29;;;;;;;;;1.25;1.25;;;;;10.40;52.43;101995.16;5023753;28;45371;-87
2022/01/31 10:11:00;;;;;;;;;2.75;1.75;;;;;10.39;52.91;102009.19;5041170;28;45524;-90
2022/01/31 10:16:29;;;;;;;;;5.00;1.00;;;;;10.37;52.17;102017.09;5042031;28;45351;-87
2022/01/31 10:19:08;;;;;;;;;2.25;1.25;;;;;10.33;52.45;102021.53;5040604;28;45356;-86
2022/01/31 10:21:55;;;;;;;;;3.50;2.00;;;;;10.31;51.96;102035.56;5029334;28;45391;-90
2022/01/31 10:24:22;;;;;;;;;4.25;2.75;;;;;10.29;52.04;102032.97;5041734;28;45421;-86
2022/01/31 10:26:47;;;;;;;;;2.00;2.00;;;;;10.30;50.93;102033.81;5042360;28;46031;-89
2022/01/31 10:29:15;;;;;;;;;4.00;1.25;;;;;10.29;50.93;102034.72;5043934;28;45425;-87
2022/01/31 10:32:05;;;;;;;;;3.00;1.50;;;;;10.35;51.42;102019.75;5041146;28;45405;-88
2022/01/31 10:34:34;;;;;;;;;4.50;3.00;;;;;10.41;49.60;102024.06;5045159;28;45816;-87
2022/01/31 10:37:04;;;;;;;;;1.50;1.00;;;;;10.49;50.95;102026.63;5040547;28;45154;-90
2022/01/31 10:45:33;;;;;;;;;4.25;1.50;;;;;10.31;55.00;102049.59;5052790;28;45401;-87
2022/01/31 10:53:57;;;;;;;;;4.25;3.00;;;;;10.00;55.28;102055.16;5041885;28;45354;-88
2022/01/31 10:56:25;;;;;;;;;4.75;3.00;;;;;9.96;54.47;102056.94;5040401;28;45462;-87
2022/01/31 10:58:59;;;;;;;;;2.00;2.00;;;;;9.93;52.86;102061.31;5022456;28;45443;-86
2022/01/31 11:01:26;;;;;;;;;4.50;2.25;;;;;9.90;53.87;102044.72;5040837;28;45397;-87
2022/01/31 11:03:52;;;;;;;;;1.00;1.00;;;;;9.92;52.79;102067.47;5030804;28;45442;-85
2022/01/31 11:06:20;;;;;;;;;3.00;2.50;;;;;9.95;53.63;102067.47;5040551;28;45497;-85
2022/01/31 11:08:46;;;;;;;;;8.00;5.00;;;;;9.99;52.83;102061.28;5021865;28;45887;-86
2022/01/31 11:11:12;;;;;;;;;3.00;3.00;;;;;10.03;53.42;102065.59;5040956;28;45453;-85
2022/01/31 11:13:38;;;;;;;;;2.25;2.00;;;;;10.05;51.80;102058.59;5039728;28;45501;-86
2022/01/31 11:16:06;;;;;;;;;4.75;2.50;;;;;10.10;52.25;102040.19;5035218;28;46355;-85
2022/01/31 11:18:33;;;;;;;;;5.00;2.50;;;;;10.17;52.63;102049.75;5026897;28;45584;-86
2022/01/31 11:21:05;;;;;;;;;6.50;3.00;;;;;10.24;52.09;102058.41;5022888;28;45317;-86
2022/01/31 11:23:37;;;;;;;;;2.25;2.25;;;;;10.30;51.82;102054.84;5039898;28;45447;-86
2022/01/31 11:26:06;;;;;;;;;4.50;1.50;;;;;10.30;51.46;102050.47;5040696;28;46345;-85
2022/01/31 11:28:34;;;;;;;;;2.50;2.00;;;;;10.36;51.32;102054.78;5040328;28;45446;-85
2022/01/31 11:31:02;;;;;;;;;4.75;1.50;;;;;10.38;50.02;102055.63;5039703;28;45573;-86
2022/01/31 11:33:27;;;;;;;;;3.00;2.50;;;;;10.39;50.75;102056.50;5041059;28;45235;-86
2022/01/31 11:35:54;;;;;;;;;2.00;2.00;;;;;10.44;51.20;102081.00;5052727;28;45468;-87
2022/01/31 11:38:20;;;;;;;;;1.50;0.00;;;;;10.42;52.27;102085.41;5022160;28;45876;-86
2022/01/31 11:40:46;;;;;;;;;1.50;1.00;;;;;10.23;52.50;102077.69;5040697;28;45371;-87
2022/01/31 11:43:14;;;;;;;;;1.00;1.00;;;;;10.17;53.38;102059.38;5032581;28;45287;-85
2022/01/31 11:45:41;;;;;;;;;2.00;2.00;;;;;10.14;53.02;102060.25;5040031;28;46364;-85
2022/01/31 11:48:11;;;;;;;;;1.00;1.00;;;;;10.07;52.72;102054.22;5041062;28;45272;-85
2022/01/31 11:50:52;;;;;;;;;4.00;2.00;;;;;10.09;53.16;102056.81;5039966;28;45365;-85